Time;durP1;ratioP1;P1;durP2;ratioP2;P2;SDS_P1;SDS_P2;PMS_P1;PMS_P2;Temp;Humidity;BMP_temperature;BMP_pressure;BME280_temperature;BME280_humidity;BME280_pressure;Samples;Min_cycle;Max_cycle;Signal;HPM_P1;HPM_P2
2022/08/17 00:02:18;;;;;;;1.70;1.60;;;26.40;54.10;;;;;;5046952;28;20044;-61
2022/08/17 00:04:52;;;;;;;1.73;1.63;;;26.40;54.10;;;;;;5047688;28;20493;-61
2022/08/17 00:07:20;;;;;;;2.22;2.08;;;26.40;54.10;;;;;;5048494;28;20370;-61
2022/08/17 00:09:47;;;;;;;1.83;1.73;;;26.40;54.10;;;;;;5041247;28;20408;-61
2022/08/17 00:12:15;;;;;;;2.35;1.83;;;26.40;54.00;;;;;;5046875;28;20138;-61
2022/08/17 00:15:04;;;;;;;1.70;1.60;;;26.40;54.00;;;;;;5046643;28;20143;-61
2022/08/17 00:17:34;;;;;;;1.77;1.67;;;26.40;54.00;;;;;;5047786;28;20044;-61
2022/08/17 00:20:03;;;;;;;1.90;1.77;;;26.40;54.00;;;;;;5046130;28;20057;-61
2022/08/17 00:22:30;;;;;;;2.10;2.00;;;26.40;54.00;;;;;;5047524;28;20049;-62
2022/08/17 00:25:10;;;;;;;1.85;1.75;;;26.40;54.10;;;;;;5047799;28;20681;-61
2022/08/17 00:27:38;;;;;;;1.85;1.70;;;26.40;54.10;;;;;;5047214;28;20270;-61
2022/08/17 00:30:08;;;;;;;1.73;1.63;;;26.40;54.10;;;;;;5047704;28;20053;-61
2022/08/17 00:32:44;;;;;;;2.03;1.63;;;26.30;54.00;;;;;;5047795;28;20090;-61
2022/08/17 00:35:32;;;;;;;1.85;1.75;;;26.30;54.00;;;;;;5046765;28;20057;-62
2022/08/17 00:37:59;;;;;;;1.80;1.70;;;26.30;54.10;;;;;;5048061;28;20068;-61
2022/08/17 00:40:26;;;;;;;2.20;2.00;;;26.30;54.00;;;;;;5042921;28;20048;-61
2022/08/17 00:43:12;;;;;;;1.80;1.70;;;26.30;54.10;;;;;;5047333;28;20045;-61
2022/08/17 00:45:40;;;;;;;1.67;1.58;;;26.30;54.10;;;;;;5045423;28;20053;-61
2022/08/17 00:48:08;;;;;;;2.03;1.92;;;26.30;54.10;;;;;;5046625;28;20466;-61
2022/08/17 00:51:07;;;;;;;1.73;1.63;;;26.30;54.10;;;;;;5046152;28;20136;-61
2022/08/17 00:53:38;;;;;;;2.38;2.20;;;26.30;54.10;;;;;;5045648;28;20486;-61
2022/08/17 00:56:09;;;;;;;2.25;1.80;;;26.30;54.20;;;;;;5047220;28;20333;-61
2022/08/17 00:58:37;;;;;;;1.70;1.60;;;26.30;54.10;;;;;;5046496;28;20076;-61
2022/08/17 01:01:07;;;;;;;1.95;1.75;;;26.30;54.20;;;;;;5046923;28;20166;-61
2022/08/17 01:03:36;;;;;;;2.55;2.00;;;26.30;54.10;;;;;;5045952;28;20049;-61
2022/08/17 01:06:05;;;;;;;1.73;1.63;;;26.20;54.10;;;;;;5045275;28;20303;-61
2022/08/17 01:08:35;;;;;;;1.70;1.60;;;26.20;54.10;;;;;;5046658;28;20060;-61
2022/08/17 01:11:04;;;;;;;1.67;1.60;;;26.20;54.10;;;;;;5027241;28;20605;-61
2022/08/17 01:13:35;;;;;;;1.88;1.77;;;26.20;54.10;;;;;;5044301;28;20257;-61
2022/08/17 01:16:27;;;;;;;1.77;1.67;;;26.30;54.20;;;;;;5045309;28;20632;-61
2022/08/17 01:18:58;;;;;;;1.90;1.80;;;26.20;54.10;;;;;;5046724;28;20480;-61
2022/08/17 01:22:02;;;;;;;2.22;2.10;;;26.20;54.10;;;;;;5046167;28;20498;-61
2022/08/17 01:24:29;;;;;;;1.67;1.58;;;26.20;54.10;;;;;;5045465;28;20057;-61
2022/08/17 01:27:00;;;;;;;3.90;2.03;;;26.20;54.00;;;;;;5044958;28;20124;-61
2022/08/17 01:29:30;;;;;;;2.55;1.55;;;26.20;54.00;;;;;;5045812;28;20087;-61
2022/08/17 01:32:01;;;;;;;1.75;1.65;;;26.20;54.00;;;;;;5044531;28;20049;-61
2022/08/17 01:34:29;;;;;;;1.45;1.45;;;26.20;54.00;;;;;;5046278;28;20486;-61
2022/08/17 01:37:13;;;;;;;1.80;1.70;;;26.20;54.00;;;;;;5046134;28;20045;-61
2022/08/17 01:39:55;;;;;;;1.60;1.50;;;26.20;54.00;;;;;;5046431;28;20529;-61
2022/08/17 01:42:43;;;;;;;1.75;1.65;;;26.20;54.00;;;;;;5045553;28;20456;-61
2022/08/17 01:45:16;;;;;;;1.70;1.60;;;26.20;54.00;;;;;;5043141;28;20052;-61
2022/08/17 01:47:44;;;;;;;1.55;1.33;;;26.20;54.10;;;;;;5045522;28;20581;-61
2022/08/17 01:50:15;;;;;;;1.48;1.38;;;26.20;54.10;;;;;;5045942;28;20045;-61
2022/08/17 01:52:44;;;;;;;1.70;1.60;;;26.20;54.10;;;;;;5046225;28;20483;-61
2022/08/17 01:55:15;;;;;;;1.58;1.48;;;26.20;54.10;;;;;;5045832;28;20321;-61
2022/08/17 01:57:44;;;;;;;;;;;26.20;54.10;;;;;;5046033;28;20080;-61
2022/08/17 02:00:12;;;;;;;2.03;1.73;;;26.10;54.00;;;;;;5045967;28;19925;-61
2022/08/17 02:02:40;;;;;;;1.60;1.50;;;26.10;54.00;;;;;;5045689;28;20073;-61
2022/08/17 02:05:08;;;;;;;1.95;1.85;;;26.10;54.00;;;;;;5046291;28;20072;-61
2022/08/17 02:07:35;;;;;;;1.63;1.52;;;26.20;54.10;;;;;;5045573;28;20099;-61
2022/08/17 02:10:22;;;;;;;2.42;2.15;;;26.10;54.00;;;;;;5044865;28;20084;-61
2022/08/17 02:13:00;;;;;;;1.63;1.52;;;26.10;54.10;;;;;;5045353;28;20087;-61
2022/08/17 02:15:28;;;;;;;1.70;1.60;;;26.10;54.10;;;;;;5040846;28;20041;-61
2022/08/17 02:17:55;;;;;;;1.73;1.63;;;26.10;54.10;;;;;;5044279;28;20553;-61
2022/08/17 02:20:22;;;;;;;3.17;1.80;;;26.10;54.10;;;;;;5045431;28;20049;-61
2022/08/17 02:23:11;;;;;;;1.60;1.50;;;26.10;54.10;;;;;;5045359;28;20436;-61
2022/08/17 02:25:42;;;;;;;1.80;1.70;;;26.10;54.20;;;;;;5045393;28;20052;-61
2022/08/17 02:28:10;;;;;;;1.75;1.65;;;26.10;54.10;;;;;;5044087;28;20543;-61
2022/08/17 02:30:37;;;;;;;1.83;1.73;;;26.10;54.10;;;;;;5045520;28;20053;-61
2022/08/17 02:33:24;;;;;;;1.73;1.63;;;26.10;54.20;;;;;;5045461;28;20173;-61
2022/08/17 02:36:11;;;;;;;1.48;1.40;;;26.10;54.10;;;;;;5045359;28;20045;-61
2022/08/17 02:38:39;;;;;;;1.65;1.55;;;26.10;54.10;;;;;;5045451;28;20053;-61
2022/08/17 02:41:07;;;;;;;1.35;1.30;;;26.10;54.10;;;;;;5028424;28;20472;-61
2022/08/17 02:43:35;;;;;;;2.00;1.80;;;26.10;54.10;;;;;;5044615;28;20045;-61
2022/08/17 02:46:02;;;;;;;1.73;1.63;;;26.10;54.10;;;;;;5040258;28;20335;-63
2022/08/17 02:48:30;;;;;;;2.30;1.38;;;26.00;54.00;;;;;;5044839;28;20544;-61
2022/08/17 02:50:59;;;;;;;1.55;1.55;;;26.00;54.00;;;;;;5044312;28;20052;-61
2022/08/17 02:53:27;;;;;;;1.83;1.73;;;26.00;54.00;;;;;;5045132;28;20049;-61
2022/08/17 02:56:02;;;;;;;2.17;1.73;;;26.00;54.10;;;;;;5045189;28;20551;-63
2022/08/17 02:58:30;;;;;;;1.52;1.42;;;26.00;54.10;;;;;;5044872;28;20110;-61
2022/08/17 03:01:07;;;;;;;3.67;2.00;;;26.00;54.10;;;;;;5043850;28;20227;-61
2022/08/17 03:03:36;;;;;;;1.58;1.48;;;26.00;54.20;;;;;;5044796;28;20049;-61
2022/08/17 03:06:06;;;;;;;1.70;1.60;;;26.00;54.30;;;;;;5045086;28;20052;-61
2022/08/17 03:08:34;;;;;;;1.95;1.70;;;26.00;54.30;;;;;;5044381;28;20453;-61
2022/08/17 03:11:01;;;;;;;2.08;1.88;;;26.00;54.30;;;;;;5045047;28;20091;-62
2022/08/17 03:13:29;;;;;;;2.03;1.90;;;26.00;54.30;;;;;;5044946;28;20053;-61
2022/08/17 03:15:57;;;;;;;1.95;1.77;;;26.00;54.40;;;;;;5045076;28;20055;-63
2022/08/17 03:18:25;;;;;;;1.70;1.60;;;26.00;54.40;;;;;;5039937;28;20288;-61
2022/08/17 03:20:57;;;;;;;1.60;1.50;;;26.00;54.40;;;;;;5044194;28;20056;-61
2022/08/17 03:23:26;;;;;;;1.50;1.40;;;26.00;54.50;;;;;;5043620;28;20079;-61
2022/08/17 03:25:55;;;;;;;1.58;1.48;;;26.00;54.40;;;;;;5044567;28;20060;-61
2022/08/17 03:28:23;;;;;;;1.77;1.67;;;26.00;54.40;;;;;;5041227;28;20095;-61
2022/08/17 03:30:51;;;;;;;3.53;2.00;;;26.00;54.40;;;;;;5025280;28;20483;-61
2022/08/17 03:33:19;;;;;;;1.83;1.73;;;26.00;54.40;;;;;;5024092;28;20053;-61
2022/08/17 03:35:47;;;;;;;1.70;1.60;;;26.00;54.50;;;;;;5025357;28;20042;-61
2022/08/17 03:38:15;;;;;;;3.38;2.00;;;26.00;54.50;;;;;;5024485;28;20211;-61
2022/08/17 03:40:45;;;;;;;1.70;1.60;;;26.00;54.50;;;;;;5024744;28;20136;-61
2022/08/17 03:43:30;;;;;;;1.48;1.38;;;26.00;54.50;;;;;;5036134;28;20045;-61
2022/08/17 03:57:30;;;;;;;1.88;1.60;;;25.90;54.50;;;;;;5047477;28;20049;-61
2022/08/17 03:59:58;;;;;;;2.30;1.95;;;25.90;54.50;;;;;;5047604;28;20654;-61
2022/08/17 04:02:31;;;;;;;1.73;1.63;;;26.00;54.60;;;;;;5044764;28;20045;-61
2022/08/17 04:04:59;;;;;;;1.90;1.80;;;25.90;54.50;;;;;;5042527;28;20102;-61
2022/08/17 04:07:29;;;;;;;1.73;1.42;;;25.90;54.50;;;;;;5041900;28;20079;-61
2022/08/17 04:09:58;;;;;;;1.90;1.80;;;26.00;54.50;;;;;;5032515;28;20049;-61
2022/08/17 04:12:29;;;;;;;2.72;2.08;;;26.00;54.50;;;;;;5031863;28;20052;-61
2022/08/17 04:14:57;;;;;;;1.70;1.60;;;26.00;54.50;;;;;;5046206;28;20171;-61
2022/08/17 04:17:27;;;;;;;1.50;1.40;;;26.00;54.40;;;;;;5045907;28;20099;-61
2022/08/17 04:19:55;;;;;;;2.83;2.10;;;25.90;54.30;;;;;;5047714;28;20041;-61
2022/08/17 04:22:23;;;;;;;1.73;1.63;;;26.00;54.30;;;;;;5041668;28;20041;-61
2022/08/17 04:25:15;;;;;;;1.73;1.63;;;26.00;54.30;;;;;;5047737;28;20312;-62
2022/08/17 04:27:42;;;;;;;2.67;1.70;;;26.00;54.30;;;;;;5047361;28;20644;-61
2022/08/17 04:30:10;;;;;;;2.40;1.88;;;26.00;54.20;;;;;;5046082;28;20623;-62
2022/08/17 04:32:54;;;;;;;3.58;1.70;;;26.00;54.20;;;;;;5046225;28;20053;-61
2022/08/17 04:35:49;;;;;;;1.70;1.35;;;26.00;54.20;;;;;;5047313;28;20516;-61
2022/08/17 04:38:19;;;;;;;1.60;1.50;;;26.00;54.10;;;;;;5046847;28;20041;-61
2022/08/17 04:43:35;;;;;;;1.98;1.88;;;26.00;54.00;;;;;;5047247;28;20592;-61
2022/08/17 04:46:06;;;;;;;1.90;1.80;;;26.10;54.00;;;;;;5046667;28;20045;-61
2022/08/17 04:48:37;;;;;;;2.05;1.95;;;26.10;54.00;;;;;;5047229;28;20052;-61
2022/08/17 04:51:09;;;;;;;2.38;2.25;;;26.10;53.90;;;;;;5045405;28;20049;-61
2022/08/17 04:53:39;;;;;;;1.73;1.63;;;26.10;53.80;;;;;;5042802;28;20095;-61
2022/08/17 04:56:07;;;;;;;2.60;1.45;;;26.10;53.80;;;;;;5047286;28;20049;-61
2022/08/17 04:58:43;;;;;;;2.63;2.20;;;26.20;53.80;;;;;;5045570;28;20395;-61
2022/08/17 05:01:11;;;;;;;3.33;2.00;;;26.20;53.80;;;;;;5046772;28;20041;-61
2022/08/17 05:03:38;;;;;;;3.30;2.05;;;26.20;53.70;;;;;;5045832;28;20055;-62
2022/08/17 05:06:06;;;;;;;1.80;1.70;;;26.20;53.60;;;;;;5043257;28;20131;-61
2022/08/17 05:08:34;;;;;;;2.15;1.90;;;26.20;53.50;;;;;;5032577;28;20520;-61
2022/08/17 05:11:01;;;;;;;3.33;1.70;;;26.20;53.50;;;;;;5030515;28;20120;-61
2022/08/17 05:13:29;;;;;;;2.33;2.17;;;26.10;53.50;;;;;;5025697;28;20546;-61
2022/08/17 05:16:02;;;;;;;1.92;1.83;;;26.00;53.60;;;;;;5037916;28;20464;-61
2022/08/17 05:18:30;;;;;;;3.63;2.78;;;25.90;53.70;;;;;;5046291;28;20243;-61
2022/08/17 05:20:59;;;;;;;3.22;2.42;;;25.70;54.00;;;;;;5045831;28;20049;-62
2022/08/17 05:23:26;;;;;;;3.50;2.45;;;25.50;53.80;;;;;;5041566;28;20134;-63
2022/08/17 05:26:12;;;;;;;1.88;1.70;;;25.20;53.20;;;;;;5040438;28;20050;-62
2022/08/17 05:28:55;;;;;;;2.35;1.90;;;25.00;52.50;;;;;;5037175;28;20041;-62
2022/08/17 05:31:29;;;;;;;7.03;2.60;;;24.60;51.90;;;;;;5031724;28;20063;-62
2022/08/17 05:33:56;;;;;;;5.45;2.78;;;24.30;51.50;;;;;;5032632;28;20041;-62
2022/08/17 05:36:24;;;;;;;4.00;2.42;;;24.00;51.30;;;;;;5035774;28;20083;-63
2022/08/17 05:39:11;;;;;;;3.42;2.67;;;23.60;51.10;;;;;;5035251;28;20654;-63
2022/08/17 05:41:45;;;;;;;2.65;2.40;;;23.30;51.10;;;;;;5042040;28;20099;-63
2022/08/17 05:44:13;;;;;;;3.20;2.90;;;23.00;51.90;;;;;;5034342;28;21427;-63
2022/08/17 05:46:44;;;;;;;4.43;3.15;;;22.70;51.70;;;;;;5026703;28;20056;-63
2022/08/17 05:49:14;;;;;;;3.13;2.42;;;22.40;52.50;;;;;;5036366;28;20036;-64
2022/08/17 05:51:58;;;;;;;4.40;2.70;;;22.20;52.70;;;;;;5031014;28;20052;-63
2022/08/17 05:54:51;;;;;;;6.45;3.80;;;22.00;52.70;;;;;;5028892;28;20048;-63
2022/08/17 05:57:40;;;;;;;7.32;3.35;;;21.70;53.40;;;;;;5035120;28;20083;-65
2022/08/17 06:00:24;;;;;;;7.35;3.45;;;21.60;54.00;;;;;;5031280;28;20049;-63
2022/08/17 06:03:26;;;;;;;5.63;3.22;;;21.40;54.50;;;;;;5030940;28;20041;-63
2022/08/17 06:06:22;;;;;;;3.53;2.85;;;21.20;55.00;;;;;;5038972;28;20060;-70
2022/08/17 06:09:22;;;;;;;6.15;3.47;;;21.10;55.60;;;;;;5037604;28;20505;-62
2022/08/17 06:12:37;;;;;;;7.28;3.30;;;21.10;56.20;;;;;;5042123;28;20049;-62
2022/08/17 06:15:38;;;;;;;5.93;3.72;;;21.00;56.80;;;;;;5049660;28;20448;-62
2022/08/17 06:18:09;;;;;;;6.35;3.95;;;21.00;57.10;;;;;;5033840;28;20052;-61
2022/08/17 06:20:52;;;;;;;4.55;3.30;;;21.00;57.50;;;;;;5027591;28;21219;-61
2022/08/17 06:23:35;;;;;;;6.30;3.20;;;21.00;57.50;;;;;;5026352;28;20080;-61
2022/08/17 06:26:09;;;;;;;3.30;3.00;;;21.00;57.90;;;;;;5024721;28;20045;-60
2022/08/17 06:28:46;;;;;;;8.40;3.83;;;21.00;57.70;;;;;;5025487;28;20134;-61
2022/08/17 06:31:26;;;;;;;5.53;3.35;;;21.00;58.30;;;;;;5030988;28;20065;-59
2022/08/17 06:33:57;;;;;;;6.50;3.13;;;21.00;57.90;;;;;;5038431;28;20041;-61
2022/08/17 06:36:45;;;;;;;;;;;21.00;58.20;;;;;;5021587;28;20482;-61
2022/08/17 06:39:41;;;;;;;5.45;3.72;;;21.00;58.30;;;;;;5035932;28;19935;-60
2022/08/17 06:42:46;;;;;;;3.55;3.22;;;21.00;58.30;;;;;;5034574;28;20132;-61
2022/08/17 06:45:42;;;;;;;5.82;3.83;;;21.00;58.40;;;;;;5034595;28;20405;-61
2022/08/17 06:48:46;;;;;;;10.18;3.38;;;21.00;58.50;;;;;;5035704;28;20087;-59
2022/08/17 06:51:39;;;;;;;4.68;3.30;;;21.00;58.20;;;;;;5023848;28;20053;-61
2022/08/17 06:54:37;;;;;;;4.18;3.30;;;21.00;58.70;;;;;;5029003;28;20445;-59
2022/08/17 06:57:17;;;;;;;3.63;3.20;;;21.00;58.80;;;;;;5027576;28;20112;-61
2022/08/17 06:59:54;;;;;;;3.53;3.03;;;21.00;59.20;;;;;;5022934;28;20106;-62
2022/08/17 07:02:48;;;;;;;4.03;2.85;;;21.00;59.30;;;;;;5027506;28;20441;-61
2022/08/17 07:05:22;;;;;;;8.02;4.28;;;21.00;59.10;;;;;;5032318;28;20218;-61
2022/08/17 07:08:15;;;;;;;4.13;3.03;;;21.00;59.30;;;;;;5034231;28;20049;-62
2022/08/17 07:10:59;;;;;;;4.70;3.47;;;21.00;59.70;;;;;;5034283;28;20037;-61
2022/08/17 07:14:00;;;;;;;5.20;3.25;;;21.00;59.80;;;;;;5035454;28;20072;-63
2022/08/17 07:16:47;;;;;;;6.05;3.53;;;21.00;60.00;;;;;;5035861;28;20111;-61
2022/08/17 07:19:17;;;;;;;9.32;3.30;;;21.00;60.60;;;;;;5032663;28;20383;-61
2022/08/17 07:22:00;;;;;;;3.70;3.40;;;21.00;60.70;;;;;;5033749;28;20710;-62
2022/08/17 07:24:57;;;;;;;5.65;3.45;;;21.10;60.60;;;;;;5036557;28;20402;-62
2022/08/17 07:27:29;;;;;;;5.75;3.33;;;21.10;60.70;;;;;;5036972;28;20087;-62
2022/08/17 07:30:06;;;;;;;6.22;3.30;;;21.10;60.70;;;;;;5034247;28;20061;-62
2022/08/17 07:32:43;;;;;;;4.97;3.22;;;21.20;60.60;;;;;;5033377;28;20099;-61
2022/08/17 07:35:19;;;;;;;4.68;3.42;;;21.20;60.70;;;;;;5033649;28;20041;-61
2022/08/17 07:37:52;;;;;;;3.50;3.15;;;21.20;60.50;;;;;;5034913;28;20552;-61
2022/08/17 07:40:25;;;;;;;3.42;2.95;;;21.20;60.50;;;;;;5039187;28;20072;-61
2022/08/17 07:43:32;;;;;;;4.35;2.97;;;21.20;60.50;;;;;;5041754;28;20051;-59
2022/08/17 07:48:56;;;;;;;4.18;3.40;;;21.30;61.20;;;;;;5035445;28;20099;-61
2022/08/17 07:51:30;;;;;;;4.10;3.17;;;21.30;61.00;;;;;;5033984;28;20046;-61
2022/08/17 07:54:01;;;;;;;3.28;2.47;;;21.30;61.20;;;;;;5036913;28;20375;-59
2022/08/17 07:57:02;;;;;;;3.28;2.72;;;21.30;61.60;;;;;;5036936;28;20145;-61
2022/08/17 07:59:32;;;;;;;6.38;3.45;;;21.40;61.90;;;;;;5026673;28;20062;-61
2022/08/17 08:02:24;;;;;;;5.15;3.45;;;21.40;61.30;;;;;;5024129;28;20076;-61
2022/08/17 08:05:17;;;;;;;6.05;3.08;;;21.40;60.90;;;;;;5037391;28;20037;-63
2022/08/17 08:08:26;;;;;;;6.63;3.45;;;21.50;60.70;;;;;;5033083;28;20181;-62
2022/08/17 08:11:09;;;;;;;3.47;2.83;;;21.50;60.10;;;;;;5037527;28;20047;-62
2022/08/17 08:13:44;;;;;;;5.10;3.30;;;21.40;60.40;;;;;;5044554;28;20425;-62
2022/08/17 08:16:28;;;;;;;4.30;3.30;;;21.50;60.60;;;;;;5040974;28;20041;-62
2022/08/17 08:18:59;;;;;;;5.72;3.30;;;21.50;60.50;;;;;;5037234;28;20048;-62
2022/08/17 08:21:40;;;;;;;;;;;21.40;60.60;;;;;;5037733;28;20171;-63
2022/08/17 08:24:28;;;;;;;5.22;2.53;;;21.40;60.70;;;;;;5042073;28;19972;-62
2022/08/17 08:27:37;;;;;;;3.28;2.78;;;21.40;60.30;;;;;;5039783;28;20114;-62
2022/08/17 08:30:10;;;;;;;3.75;2.83;;;21.40;60.20;;;;;;5034408;28;20045;-62
2022/08/17 08:33:03;;;;;;;3.45;3.15;;;21.40;60.50;;;;;;5038972;28;20141;-62
2022/08/17 08:35:40;;;;;;;4.97;3.97;;;21.40;60.60;;;;;;5032827;28;20044;-61
2022/08/17 08:38:47;;;;;;;3.58;2.88;;;21.40;60.50;;;;;;5057039;28;20423;-61
2022/08/17 08:41:53;;;;;;;3.08;2.80;;;21.40;60.10;;;;;;5033681;28;20475;-62
2022/08/17 08:44:46;;;;;;;3.38;3.03;;;21.30;60.60;;;;;;5036414;28;20049;-63
2022/08/17 08:48:06;;;;;;;4.38;3.13;;;21.40;61.00;;;;;;5035777;28;20099;-60
2022/08/17 08:51:19;;;;;;;3.78;2.80;;;21.40;61.00;;;;;;5039704;28;20057;-60
2022/08/17 08:54:00;;;;;;;2.78;2.55;;;21.50;60.90;;;;;;5035890;28;20493;-60
2022/08/17 08:56:38;;;;;;;4.53;2.78;;;21.50;61.40;;;;;;5042667;28;20057;-60
2022/08/17 08:59:35;;;;;;;3.03;2.80;;;21.60;63.60;;;;;;5034225;28;20655;-59
2022/08/17 09:02:49;;;;;;;4.00;2.80;;;21.70;63.00;;;;;;5038176;28;20049;-61
2022/08/17 09:05:56;;;;;;;3.20;2.85;;;21.90;62.80;;;;;;5029364;28;20587;-60
2022/08/17 09:08:52;;;;;;;3.17;2.88;;;22.00;62.30;;;;;;5031669;28;20049;-61
2022/08/17 09:11:43;;;;;;;3.95;3.40;;;22.20;61.90;;;;;;5034575;28;20060;-60
2022/08/17 09:14:38;;;;;;;4.23;3.30;;;22.20;61.50;;;;;;5043195;28;20044;-61
2022/08/17 09:17:39;;;;;;;3.25;2.95;;;22.30;61.20;;;;;;5041774;28;20662;-60
2022/08/17 09:20:20;;;;;;;3.40;3.10;;;22.30;60.90;;;;;;5040248;28;20426;-59
2022/08/17 09:23:21;;;;;;;3.55;3.25;;;22.30;60.70;;;;;;5041355;28;20590;-59
2022/08/17 09:25:56;;;;;;;4.13;3.13;;;22.30;60.60;;;;;;5034015;28;20090;-60
2022/08/17 09:28:33;;;;;;;4.95;3.67;;;22.30;60.50;;;;;;5034738;28;20038;-60
2022/08/17 09:31:08;;;;;;;3.90;3.55;;;22.40;60.50;;;;;;5040708;28;20509;-61
2022/08/17 09:33:42;;;;;;;3.30;3.00;;;22.40;60.40;;;;;;5038550;28;20387;-59
2022/08/17 09:36:21;;;;;;;2.90;2.70;;;22.40;60.30;;;;;;5036118;28;20049;-61
2022/08/17 09:39:07;;;;;;;4.07;3.25;;;22.40;60.40;;;;;;5036422;28;20452;-61
2022/08/17 09:41:59;;;;;;;5.30;3.00;;;22.40;60.10;;;;;;5045469;28;20512;-61
2022/08/17 09:44:41;;;;;;;3.60;3.30;;;22.40;60.20;;;;;;5029934;28;20058;-61
2022/08/17 09:47:23;;;;;;;3.45;2.75;;;22.40;60.20;;;;;;5038556;28;20138;-61
2022/08/17 09:50:02;;;;;;;3.33;3.03;;;22.40;60.20;;;;;;5040976;28;20045;-61
2022/08/17 09:52:30;;;;;;;6.05;2.63;;;22.30;59.10;;;;;;5034799;28;20045;-62
2022/08/17 09:55:00;;;;;;;3.08;2.85;;;22.30;58.10;;;;;;5039291;28;20347;-63
2022/08/17 09:57:54;;;;;;;4.53;3.10;;;22.20;58.00;;;;;;5035484;28;20063;-62
2022/08/17 10:00:26;;;;;;;3.38;3.08;;;22.10;58.00;;;;;;5037270;28;20053;-62
2022/08/17 10:03:33;;;;;;;2.85;2.65;;;22.00;58.00;;;;;;5032374;28;20041;-62
2022/08/17 10:06:18;;;;;;;5.68;3.10;;;21.90;57.90;;;;;;5038421;28;20045;-62
2022/08/17 10:09:13;;;;;;;5.22;2.60;;;21.90;57.90;;;;;;5035369;28;20077;-62
2022/08/17 10:12:15;;;;;;;5.20;3.17;;;21.90;57.70;;;;;;5026995;28;20098;-62
2022/08/17 10:15:12;;;;;;;4.53;3.30;;;21.80;57.70;;;;;;5043251;28;20276;-62
2022/08/17 10:18:20;;;;;;;3.00;2.80;;;21.70;57.90;;;;;;5036373;28;20494;-62
2022/08/17 10:27:50;;;;;;;4.45;3.45;;;21.60;58.00;;;;;;5036840;28;20072;-62
2022/08/17 10:30:22;;;;;;;3.65;3.10;;;21.60;58.00;;;;;;5032771;28;20345;-62
2022/08/17 10:33:00;;;;;;;3.53;2.92;;;21.50;58.00;;;;;;5033985;28;20148;-62
2022/08/17 10:35:45;;;;;;;3.75;2.75;;;21.50;58.00;;;;;;5033099;28;20416;-62
2022/08/17 10:38:40;;;;;;;3.25;2.95;;;21.40;57.90;;;;;;5031643;28;20563;-62
2022/08/17 10:41:30;;;;;;;3.45;3.15;;;21.40;58.20;;;;;;5032873;28;20307;-64
2022/08/17 10:44:30;;;;;;;3.38;3.08;;;21.30;58.30;;;;;;5036007;28;20132;-62
2022/08/17 10:47:16;;;;;;;3.47;3.17;;;21.30;58.50;;;;;;5033502;28;20157;-62
2022/08/17 10:49:52;;;;;;;3.30;3.10;;;21.30;58.50;;;;;;5040955;28;20040;-62
2022/08/17 10:52:44;;;;;;;4.22;2.92;;;21.20;58.20;;;;;;5029167;28;20103;-62
2022/08/17 10:55:17;;;;;;;3.50;3.20;;;21.20;58.30;;;;;;5036372;28;20073;-62
2022/08/17 10:57:48;;;;;;;4.63;3.70;;;21.20;58.40;;;;;;5042447;28;20045;-61
2022/08/17 11:00:52;;;;;;;3.63;3.33;;;21.20;58.40;;;;;;5036812;28;20040;-61
2022/08/17 11:03:22;;;;;;;3.75;3.45;;;21.20;58.10;;;;;;5044920;28;20481;-62
2022/08/17 11:06:16;;;;;;;3.85;3.45;;;21.20;58.50;;;;;;5042966;28;20131;-62
2022/08/17 11:09:18;;;;;;;2.95;2.75;;;21.20;58.40;;;;;;5046493;28;20516;-62
2022/08/17 11:12:10;;;;;;;4.50;3.05;;;21.30;58.00;;;;;;5039176;28;20178;-61
2022/08/17 11:14:56;;;;;;;4.07;3.40;;;21.30;58.30;;;;;;5035369;28;20053;-61
2022/08/17 11:18:00;;;;;;;5.68;3.63;;;21.30;58.30;;;;;;5034562;28;20049;-62
2022/08/17 11:21:05;;;;;;;3.78;3.42;;;21.30;58.10;;;;;;5041068;28;20064;-60
2022/08/17 11:23:58;;;;;;;3.63;3.03;;;21.30;58.70;;;;;;5044090;28;20048;-61
2022/08/17 11:26:30;;;;;;;3.67;3.35;;;21.30;58.10;;;;;;5040461;28;20045;-62
2022/08/17 11:29:03;;;;;;;6.32;3.22;;;21.30;58.00;;;;;;5048802;28;20367;-61
2022/08/17 11:31:40;;;;;;;3.78;3.10;;;21.40;57.80;;;;;;5040944;28;20063;-61
2022/08/17 11:34:25;;;;;;;3.30;2.88;;;21.40;57.60;;;;;;5040962;28;20758;-61
2022/08/17 11:37:29;;;;;;;7.32;3.25;;;21.40;57.40;;;;;;5037858;28;20120;-60
2022/08/17 11:40:15;;;;;;;5.65;3.50;;;21.30;57.40;;;;;;5025998;28;20541;-61
2022/08/17 11:43:16;;;;;;;6.20;3.38;;;21.30;57.50;;;;;;5043343;28;20045;-62
2022/08/17 11:46:13;;;;;;;3.88;2.75;;;21.30;57.80;;;;;;5037465;28;20041;-61
2022/08/17 11:52:13;;;;;;;4.07;3.00;;;21.30;58.10;;;;;;5038772;28;20825;-62
2022/08/17 11:54:44;;;;;;;6.18;3.40;;;21.30;58.40;;;;;;5037058;28;20037;-62
2022/08/17 11:57:51;;;;;;;3.30;3.00;;;21.30;59.10;;;;;;5037100;28;20088;-61
2022/08/17 12:00:50;;;;;;;4.40;3.28;;;21.30;59.00;;;;;;5034016;28;20087;-61
2022/08/17 12:03:42;;;;;;;4.55;2.90;;;21.40;58.80;;;;;;5031343;28;20122;-63
2022/08/17 12:06:33;;;;;;;2.88;2.67;;;21.40;58.90;;;;;;5032524;28;20171;-64
2022/08/17 12:09:14;;;;;;;3.97;2.92;;;21.40;59.10;;;;;;5032736;28;20056;-62
2022/08/17 12:11:56;;;;;;;4.00;2.97;;;21.40;58.80;;;;;;5035560;28;20056;-61
2022/08/17 12:14:47;;;;;;;3.35;3.05;;;21.40;58.80;;;;;;5038373;28;20526;-61
2022/08/17 12:17:35;;;;;;;4.18;3.42;;;21.50;58.80;;;;;;5033910;28;20145;-62
2022/08/17 12:24:30;;;;;;;3.45;2.67;;;21.60;58.70;;;;;;5039772;28;20086;-61
2022/08/17 12:27:00;;;;;;;3.25;2.83;;;21.60;58.70;;;;;;5035756;28;20038;-62
2022/08/17 12:29:30;;;;;;;5.07;3.22;;;21.60;58.70;;;;;;5045214;28;20449;-61
2022/08/17 12:32:11;;;;;;;3.67;2.97;;;21.60;58.70;;;;;;5036412;28;20053;-62
2022/08/17 12:34:41;;;;;;;4.57;3.13;;;21.60;58.50;;;;;;5039449;28;20041;-62
2022/08/17 12:37:21;;;;;;;5.45;3.00;;;21.60;58.60;;;;;;5041931;28;20044;-62
2022/08/17 12:39:57;;;;;;;7.78;2.75;;;21.60;58.60;;;;;;5040835;28;20045;-61
2022/08/17 12:42:30;;;;;;;3.38;3.08;;;21.70;58.80;;;;;;5039589;28;20044;-61
2022/08/17 12:44:58;;;;;;;3.83;2.97;;;21.70;58.60;;;;;;5041714;28;20127;-62
2022/08/17 12:47:28;;;;;;;5.97;3.50;;;21.70;58.50;;;;;;5036930;28;20448;-59
2022/08/17 12:50:10;;;;;;;4.07;2.65;;;21.70;58.60;;;;;;5037767;28;20127;-61
2022/08/17 12:52:55;;;;;;;3.00;2.70;;;21.70;58.60;;;;;;5040964;28;20059;-63
2022/08/17 12:55:35;;;;;;;3.05;2.80;;;21.80;58.60;;;;;;5035332;28;20203;-60
2022/08/17 12:58:02;;;;;;;3.22;2.92;;;21.80;58.40;;;;;;5037583;28;20091;-59
2022/08/17 13:00:36;;;;;;;3.33;2.90;;;21.80;58.20;;;;;;5034114;28;20056;-59
2022/08/17 13:03:12;;;;;;;3.75;3.17;;;21.80;58.40;;;;;;5041148;28;20067;-60
2022/08/17 13:05:52;;;;;;;4.65;2.97;;;21.80;58.60;;;;;;5039571;28;20258;-61
2022/08/17 13:08:36;;;;;;;3.60;3.30;;;21.80;58.30;;;;;;5038806;28;20045;-60
2022/08/17 13:11:08;;;;;;;3.25;2.95;;;21.90;58.40;;;;;;5039104;28;20049;-60
2022/08/17 13:13:38;;;;;;;4.55;3.15;;;21.80;58.50;;;;;;5044351;28;20037;-61
2022/08/17 13:16:16;;;;;;;5.60;3.55;;;21.90;58.20;;;;;;5034284;28;20075;-61
2022/08/17 13:18:46;;;;;;;3.53;2.67;;;21.90;58.20;;;;;;5039724;28;20049;-62
2022/08/17 13:21:26;;;;;;;2.72;2.53;;;21.80;58.40;;;;;;5034273;28;20045;-61
2022/08/17 13:24:19;;;;;;;3.22;2.70;;;21.90;58.30;;;;;;5043431;28;20056;-62
2022/08/17 13:27:02;;;;;;;6.50;2.85;;;21.90;58.20;;;;;;5038493;28;20136;-60
2022/08/17 13:29:39;;;;;;;4.80;2.60;;;21.80;58.30;;;;;;5035008;28;20102;-60
2022/08/17 13:32:34;;;;;;;3.10;2.90;;;21.80;58.30;;;;;;5040126;28;20053;-60
2022/08/17 13:35:26;;;;;;;2.60;2.40;;;21.80;58.10;;;;;;5042316;28;20095;-62
2022/08/17 13:38:11;;;;;;;2.83;2.63;;;21.80;58.20;;;;;;5042987;28;20053;-62
2022/08/17 13:40:43;;;;;;;3.45;2.85;;;21.90;58.70;;;;;;5042951;28;20059;-61
2022/08/17 13:43:11;;;;;;;3.40;2.67;;;21.80;58.20;;;;;;5042721;28;20048;-59
2022/08/17 13:45:46;;;;;;;4.07;2.83;;;21.80;58.00;;;;;;5038917;28;20494;-62
2022/08/17 13:48:30;;;;;;;2.80;2.60;;;21.80;58.00;;;;;;5020570;28;20053;-60
2022/08/17 13:51:06;;;;;;;4.70;2.88;;;21.80;58.00;;;;;;5035610;28;20074;-60
2022/08/17 13:53:50;;;;;;;3.25;2.55;;;21.80;57.90;;;;;;5031759;28;20053;-60
2022/08/17 13:56:43;;;;;;;2.60;2.40;;;21.80;57.80;;;;;;5039163;28;20552;-60
2022/08/17 13:59:24;;;;;;;5.40;2.70;;;21.80;57.70;;;;;;5037480;28;20041;-61
2022/08/17 14:02:16;;;;;;;3.45;3.15;;;21.70;57.70;;;;;;5035251;28;20465;-62
2022/08/17 14:04:45;;;;;;;2.72;2.45;;;21.70;57.60;;;;;;5041113;28;20095;-61
2022/08/17 14:07:34;;;;;;;3.65;2.95;;;21.70;57.40;;;;;;5025987;28;20071;-61
2022/08/17 14:10:11;;;;;;;3.30;2.92;;;21.70;57.30;;;;;;5039530;28;20053;-61
2022/08/17 14:12:40;;;;;;;4.60;3.17;;;21.70;57.40;;;;;;5037032;28;20053;-61
2022/08/17 14:15:09;;;;;;;2.88;2.67;;;21.70;57.30;;;;;;5042788;28;20048;-62
2022/08/17 14:17:36;;;;;;;2.83;2.60;;;21.70;57.40;;;;;;5038628;28;20060;-61
2022/08/17 14:20:10;;;;;;;3.75;2.70;;;21.70;57.20;;;;;;5039349;28;20064;-61
2022/08/17 14:22:42;;;;;;;2.50;2.30;;;21.70;57.30;;;;;;5041550;28;20041;-61
2022/08/17 14:25:12;;;;;;;3.20;2.90;;;21.70;57.30;;;;;;5040627;28;20052;-61